Time;durP1;ratioP1;P1;durP2;ratioP2;P2;SDS_P1;SDS_P2;PMS_P1;PMS_P2;Temp;Humidity;BMP_temperature;BMP_pressure;BME280_temperature;BME280_humidity;BME280_pressure;Samples;Min_cycle;Max_cycle;Signal;HPM_P1;HPM_P2
2022/07/25 00:00:38;;;;;;;8.07;7.47;;;;;;;21.35;46.03;100423.22;4894376;28;98025;-79
2022/07/25 00:03:03;;;;;;;8.57;7.80;;;;;;;21.32;46.44;100439.50;4879140;28;101352;-79
2022/07/25 00:05:29;;;;;;;8.63;7.88;;;;;;;21.16;46.70;100437.16;4902187;28;101492;-79
2022/07/25 00:07:55;;;;;;;11.25;8.30;;;;;;;21.12;46.96;100436.56;4898706;28;96679;-79
2022/07/25 00:10:20;;;;;;;9.30;8.43;;;;;;;21.27;46.53;100431.84;4915345;28;96978;-79
2022/07/25 00:12:46;;;;;;;11.15;7.78;;;;;;;21.30;46.50;100430.78;4881123;28;101251;-78
2022/07/25 00:15:12;;;;;;;12.25;8.07;;;;;;;21.07;46.63;100419.19;4914736;28;97521;-78
2022/07/25 00:17:38;;;;;;;8.43;7.75;;;;;;;21.12;46.74;100415.19;4896367;28;96864;-79
2022/07/25 00:20:04;;;;;;;8.90;8.20;;;;;;;21.16;46.74;100430.00;4895431;28;97158;-79
2022/07/25 00:22:30;;;;;;;10.00;8.50;;;;;;;21.12;47.08;100430.34;4890524;28;101446;-79
2022/07/25 00:24:55;;;;;;;9.70;8.70;;;;;;;20.93;47.64;100412.22;4894551;28;101334;-79
2022/07/25 00:27:21;;;;;;;8.52;7.75;;;;;;;20.94;47.44;100425.47;4910373;28;97790;-78
2022/07/25 00:29:46;;;;;;;8.82;7.60;;;;;;;20.95;47.55;100427.16;4898289;28;97401;-80
2022/07/25 00:32:12;;;;;;;8.40;7.70;;;;;;;21.09;47.26;100428.78;4881138;28;101529;-79
2022/07/25 00:34:37;;;;;;;8.80;8.05;;;;;;;20.99;47.53;100420.59;4881132;28;101511;-79
2022/07/25 00:37:03;;;;;;;8.68;7.60;;;;;;;20.80;47.77;100410.50;4915900;28;97072;-79
2022/07/25 00:39:28;;;;;;;7.93;7.43;;;;;;;20.79;48.18;100411.44;4906789;28;97084;-79
2022/07/25 00:41:54;;;;;;;8.65;7.95;;;;;;;20.67;48.43;100416.84;4896984;28;98103;-79
2022/07/25 00:44:23;;;;;;;8.35;7.65;;;;;;;20.80;48.23;100422.97;4898166;28;101861;-79
2022/07/25 00:46:48;;;;;;;8.30;7.60;;;;;;;20.77;48.22;100420.53;4896532;28;97422;-79
2022/07/25 00:49:14;;;;;;;8.88;8.07;;;;;;;20.76;48.35;100418.81;4915612;28;97253;-82
2022/07/25 00:51:39;;;;;;;8.15;7.43;;;;;;;20.67;48.42;100416.84;4913226;28;97539;-79
2022/07/25 00:54:05;;;;;;;9.50;8.70;;;;;;;20.55;49.14;100416.78;4877084;28;101043;-79
2022/07/25 00:56:30;;;;;;;8.25;7.63;;;;;;;20.46;48.91;100396.13;4902274;28;97123;-79
2022/07/25 00:58:56;;;;;;;8.55;7.95;;;;;;;20.53;48.90;100417.88;4884810;28;97411;-78
2022/07/25 01:01:21;;;;;;;8.57;7.82;;;;;;;20.48;49.06;100410.19;4895147;28;101434;-80
2022/07/25 01:03:47;;;;;;;8.07;7.38;;;;;;;20.38;49.39;100401.16;4908708;28;97322;-79
2022/07/25 01:06:12;;;;;;;8.57;7.97;;;;;;;20.42;49.62;100415.09;4911945;28;97034;-79
2022/07/25 01:08:38;;;;;;;8.07;7.45;;;;;;;20.42;49.80;100417.78;4897826;28;96841;-80
2022/07/25 01:11:04;;;;;;;9.63;8.18;;;;;;;20.37;49.54;100414.63;4913803;28;98196;-81
2022/07/25 01:13:32;;;;;;;8.73;7.95;;;;;;;20.16;49.97;100393.03;4894290;28;101323;-79
2022/07/25 01:15:58;;;;;;;8.30;7.60;;;;;;;20.24;50.12;100419.97;4887431;28;96814;-78
2022/07/25 01:18:23;;;;;;;8.27;7.47;;;;;;;20.25;50.18;100406.56;4913744;28;96928;-78
2022/07/25 01:20:49;;;;;;;9.15;8.35;;;;;;;20.14;50.52;100401.16;4906956;28;97482;-79
2022/07/25 01:23:14;;;;;;;8.50;7.70;;;;;;;20.16;50.48;100403.69;4903265;28;101133;-79
2022/07/25 01:25:40;;;;;;;9.23;8.43;;;;;;;20.08;51.11;100405.09;4896355;28;96874;-79
2022/07/25 01:28:05;;;;;;;8.75;8.05;;;;;;;20.28;50.58;100403.66;4881388;28;96926;-78
2022/07/25 01:30:30;;;;;;;13.38;8.65;;;;;;;20.00;51.46;100401.28;4880805;28;101043;-78
2022/07/25 01:32:56;;;;;;;10.70;8.30;;;;;;;20.01;51.56;100393.22;4898979;28;97450;-78
2022/07/25 01:35:21;;;;;;;9.20;8.27;;;;;;;20.13;51.27;100394.97;4891346;28;96852;-79
2022/07/25 01:37:47;;;;;;;7.85;7.25;;;;;;;20.03;51.97;100401.06;4916073;28;96941;-78
2022/07/25 01:40:13;;;;;;;8.90;8.18;;;;;;;19.99;51.82;100387.13;4903793;28;101465;-80
2022/07/25 01:42:39;;;;;;;8.98;8.30;;;;;;;19.93;52.14;100384.91;4896817;28;98162;-82
2022/07/25 01:45:05;;;;;;;8.85;8.20;;;;;;;19.84;52.48;100399.75;4899976;28;96674;-78
2022/07/25 01:47:31;;;;;;;8.63;7.95;;;;;;;19.67;52.78;100363.66;4877248;28;96867;-78
2022/07/25 01:49:56;;;;;;;8.45;7.75;;;;;;;19.90;52.02;100363.81;4893166;28;100942;-78
2022/07/25 01:52:22;;;;;;;10.27;7.88;;;;;;;19.79;52.57;100359.25;4887817;28;97402;-78
2022/07/25 01:54:47;;;;;;;9.40;8.70;;;;;;;19.98;52.46;100380.06;4885407;28;96905;-78
2022/07/25 01:57:12;;;;;;;9.07;8.30;;;;;;;19.81;53.25;100375.13;4909528;28;96909;-78
2022/07/25 01:59:39;;;;;;;9.20;8.50;;;;;;;19.81;53.22;100377.78;4913079;28;97535;-79
2022/07/25 02:02:06;;;;;;;8.52;7.93;;;;;;;19.79;53.46;100369.06;4893757;28;101379;-78
2022/07/25 02:04:31;;;;;;;8.90;8.13;;;;;;;19.77;53.58;100379.81;4881481;28;97101;-78
2022/07/25 02:06:57;;;;;;;9.27;8.57;;;;;;;19.64;53.68;100347.88;4895110;28;97144;-78
2022/07/25 02:09:22;;;;;;;8.93;8.07;;;;;;;19.85;53.55;100369.47;4881667;28;102025;-78
2022/07/25 02:11:48;;;;;;;12.73;8.50;;;;;;;19.81;53.78;100364.47;4883666;28;100739;-78
2022/07/25 02:14:13;;;;;;;9.02;8.25;;;;;;;19.69;54.18;100371.50;4916617;28;97109;-78
2022/07/25 02:16:39;;;;;;;9.32;8.35;;;;;;;19.62;53.82;100357.75;4896914;28;97140;-79
2022/07/25 02:19:04;;;;;;;9.48;8.48;;;;;;;19.65;54.27;100362.91;4907708;28;101144;-78
2022/07/25 02:21:30;;;;;;;12.27;8.75;;;;;;;19.62;54.15;100364.91;4883106;28;100860;-78
2022/07/25 02:23:55;;;;;;;10.07;9.10;;;;;;;19.53;54.62;100366.41;4883351;28;96900;-78
2022/07/25 02:26:20;;;;;;;9.07;8.15;;;;;;;19.32;54.69;100339.50;4911348;28;96964;-78
2022/07/25 02:28:46;;;;;;;9.70;8.73;;;;;;;19.44;54.74;100364.41;4890055;28;101647;-79
2022/07/25 02:31:11;;;;;;;13.65;9.00;;;;;;;19.46;54.46;100365.16;4899680;28;101187;-78
2022/07/25 02:33:37;;;;;;;9.48;8.68;;;;;;;19.44;54.74;100372.38;4916022;28;96758;-78
2022/07/25 02:36:03;;;;;;;9.55;8.82;;;;;;;19.37;55.10;100369.31;4892472;28;96937;-79
2022/07/25 02:38:28;;;;;;;11.27;8.40;;;;;;;19.21;55.09;100352.69;4898691;28;101130;-78
2022/07/25 02:40:54;;;;;;;8.88;8.18;;;;;;;19.38;54.70;100372.81;4891733;28;101546;-78
2022/07/25 02:43:19;;;;;;;25.95;9.00;;;;;;;19.33;54.79;100369.63;4916962;28;97217;-78
2022/07/25 02:45:45;;;;;;;8.48;7.75;;;;;;;19.20;55.07;100362.50;4935629;28;97096;-82
2022/07/25 02:48:11;;;;;;;9.50;8.70;;;;;;;19.05;55.44;100352.88;4902630;28;101288;-78
2022/07/25 02:50:36;;;;;;;11.45;8.55;;;;;;;19.08;55.67;100370.44;4896866;28;97528;-78
2022/07/25 02:53:03;;;;;;;9.00;8.23;;;;;;;19.13;55.53;100363.00;4897590;28;97089;-78
2022/07/25 02:55:29;;;;;;;9.50;8.70;;;;;;;19.01;55.86;100370.03;4900388;28;97829;-79
2022/07/25 02:57:55;;;;;;;10.13;8.48;;;;;;;19.08;55.68;100368.66;4884344;28;101708;-79
2022/07/25 03:00:20;;;;;;;9.25;8.55;;;;;;;18.84;56.83;100368.50;4909085;28;101693;-78
2022/07/25 03:02:46;;;;;;;9.98;9.18;;;;;;;18.64;57.07;100350.34;4902917;28;96780;-82
2022/07/25 03:05:13;;;;;;;10.32;9.23;;;;;;;18.51;57.71;100361.81;4881479;28;96876;-78
2022/07/25 03:07:39;;;;;;;12.30;10.02;;;;;;;18.39;57.87;100352.00;4874517;28;101977;-79
2022/07/25 03:10:06;;;;;;;10.57;9.43;;;;;;;18.40;57.99;100361.66;4885796;28;100083;-78
2022/07/25 03:12:32;;;;;;;9.70;8.90;;;;;;;18.28;58.17;100365.16;4907485;28;97177;-79
2022/07/25 03:14:58;;;;;;;10.07;9.15;;;;;;;18.23;58.64;100356.63;4919904;28;96817;-79
2022/07/25 03:17:24;;;;;;;10.15;8.90;;;;;;;17.97;58.88;100350.34;4889896;28;101295;-78
2022/07/25 03:19:50;;;;;;;11.52;8.93;;;;;;;18.20;58.50;100365.63;4904779;28;101122;-81
2022/07/25 03:22:15;;;;;;;11.40;9.40;;;;;;;18.29;58.07;100365.03;4881932;28;96828;-79
2022/07/25 03:24:41;;;;;;;9.50;8.68;;;;;;;18.15;58.49;100361.56;4883489;28;96922;-78
2022/07/25 03:27:06;;;;;;;13.52;8.63;;;;;;;18.11;58.58;100355.59;4896653;28;101561;-79
2022/07/25 03:29:32;;;;;;;11.55;8.45;;;;;;;18.24;58.41;100355.69;4914983;28;97289;-79
2022/07/25 03:31:58;;;;;;;9.20;8.40;;;;;;;18.21;58.35;100353.19;4914178;28;96750;-78
2022/07/25 03:34:24;;;;;;;10.00;9.10;;;;;;;18.29;57.96;100357.06;4915068;28;96948;-79
2022/07/25 03:36:49;;;;;;;10.50;9.57;;;;;;;18.29;57.98;100354.41;4898472;28;97498;-82
2022/07/25 03:39:15;;;;;;;10.88;8.80;;;;;;;18.27;58.28;100355.47;4909922;28;98318;-78
2022/07/25 03:41:40;;;;;;;10.23;9.18;;;;;;;18.24;58.05;100353.03;4893164;28;98155;-79
2022/07/25 03:44:06;;;;;;;11.55;9.30;;;;;;;18.15;58.44;100346.50;4882402;28;96938;-79
2022/07/25 03:46:32;;;;;;;10.50;9.23;;;;;;;18.31;57.90;100352.50;4883940;28;101171;-79
2022/07/25 03:48:57;;;;;;;10.60;9.60;;;;;;;18.22;58.26;100341.63;4877238;28;101215;-78
2022/07/25 03:51:23;;;;;;;9.57;8.77;;;;;;;18.31;58.28;100349.00;4899053;28;96698;-78
2022/07/25 03:54:00;;;;;;;9.63;8.82;;;;;;;18.36;57.88;100335.44;4895805;28;97030;-78
2022/07/25 03:56:26;;;;;;;10.40;9.43;;;;;;;18.40;57.75;100313.00;4897199;28;101642;-79
2022/07/25 03:58:52;;;;;;;11.15;8.73;;;;;;;18.54;57.69;100328.88;4883292;28;101448;-82
2022/07/25 04:01:17;;;;;;;9.95;9.05;;;;;;;18.67;57.14;100342.19;4882203;28;96861;-79
2022/07/25 04:03:43;;;;;;;11.48;9.77;;;;;;;18.82;56.68;100337.66;4882719;28;96918;-78
2022/07/25 04:06:08;;;;;;;9.48;8.73;;;;;;;18.63;56.67;100332.72;4898004;28;97503;-78
2022/07/25 04:08:34;;;;;;;9.63;8.82;;;;;;;18.44;56.71;100311.81;4878995;28;100664;-78
2022/07/25 04:10:59;;;;;;;12.07;9.40;;;;;;;18.43;57.26;100329.56;4907565;28;96698;-78
2022/07/25 04:13:25;;;;;;;9.98;8.98;;;;;;;18.60;56.83;100330.28;4883289;28;97035;-78
2022/07/25 04:15:50;;;;;;;9.90;9.05;;;;;;;18.53;56.44;100319.22;4898752;28;98077;-78
2022/07/25 04:18:16;;;;;;;9.65;8.75;;;;;;;18.68;56.42;100333.25;4880296;28;100409;-77
2022/07/25 04:20:41;;;;;;;9.93;9.10;;;;;;;18.81;56.10;100334.16;4914214;28;97144;-77
2022/07/25 04:23:07;;;;;;;10.15;8.50;;;;;;;18.95;55.05;100330.56;4897215;28;96900;-77
2022/07/25 04:25:32;;;;;;;10.38;9.38;;;;;;;18.83;55.32;100312.78;4914749;28;99993;-77
2022/07/25 04:27:57;;;;;;;9.40;8.60;;;;;;;18.95;54.62;100325.25;4915152;28;97790;-78
2022/07/25 04:30:23;;;;;;;9.77;8.95;;;;;;;18.93;55.29;100316.50;4898729;28;97169;-77
2022/07/25 04:32:48;;;;;;;10.55;9.02;;;;;;;18.92;54.61;100289.06;4913682;28;97259;-78
2022/07/25 04:35:14;;;;;;;10.02;9.18;;;;;;;19.11;53.60;100309.94;4896917;28;97609;-78
2022/07/25 04:37:39;;;;;;;13.52;10.45;;;;;;;19.16;53.72;100310.44;4897379;28;100964;-78
2022/07/25 04:40:05;;;;;;;10.52;9.52;;;;;;;19.32;53.45;100315.53;4897733;28;97030;-77
2022/07/25 04:42:31;;;;;;;9.95;8.95;;;;;;;19.48;52.91;100304.66;4882077;28;97030;-78
2022/07/25 04:44:56;;;;;;;9.52;8.70;;;;;;;19.60;51.95;100303.75;4881248;28;101431;-80
2022/07/25 04:47:22;;;;;;;10.68;9.85;;;;;;;19.66;51.69;100299.84;4896804;28;101757;-78
2022/07/25 04:49:48;;;;;;;10.70;9.90;;;;;;;19.59;51.61;100282.59;4881147;28;97500;-78
2022/07/25 04:52:13;;;;;;;9.98;8.98;;;;;;;19.72;51.23;100298.56;4896753;28;98412;-78
2022/07/25 04:54:39;;;;;;;10.00;9.07;;;;;;;19.76;50.88;100295.56;4897886;28;98104;-78
2022/07/25 04:57:04;;;;;;;10.38;8.85;;;;;;;19.99;50.77;100287.72;4903360;28;101295;-78
2022/07/25 04:59:30;;;;;;;10.10;9.20;;;;;;;20.19;50.14;100300.41;4865564;28;97596;-78
2022/07/25 05:01:56;;;;;;;10.95;9.88;;;;;;;20.43;49.84;100295.03;4886668;28;97258;-78
2022/07/25 05:04:21;;;;;;;9.70;8.90;;;;;;;20.50;49.33;100287.41;4894460;28;98380;-80
2022/07/25 05:06:47;;;;;;;9.38;8.70;;;;;;;20.73;49.11;100293.69;4908609;28;97937;-78
2022/07/25 05:09:12;;;;;;;8.75;8.05;;;;;;;20.87;48.64;100279.31;4896593;28;97109;-78
2022/07/25 05:11:38;;;;;;;10.20;8.57;;;;;;;20.93;48.84;100278.81;4880944;28;97011;-79
2022/07/25 05:14:03;;;;;;;9.38;8.68;;;;;;;20.97;48.49;100278.47;4881103;28;101430;-78
2022/07/25 05:16:29;;;;;;;13.27;8.77;;;;;;;20.86;48.31;100273.13;4897398;28;97933;-78
2022/07/25 05:18:54;;;;;;;9.65;8.55;;;;;;;20.93;48.09;100277.00;4881794;28;97268;-78
2022/07/25 05:21:20;;;;;;;11.23;7.80;;;;;;;20.89;48.24;100264.88;4907705;28;97587;-78
2022/07/25 05:23:45;;;;;;;8.50;7.70;;;;;;;21.23;48.41;100268.41;4896562;28;101506;-77
2022/07/25 05:26:11;;;;;;;8.25;7.55;;;;;;;21.21;47.73;100256.16;4912934;28;97382;-78
2022/07/25 05:28:37;;;;;;;22.27;9.20;;;;;;;21.27;47.70;100269.00;4897721;28;97024;-77
2022/07/25 05:31:02;;;;;;;12.32;8.32;;;;;;;21.42;47.68;100264.31;4897137;28;97186;-79
2022/07/25 05:33:28;;;;;;;13.13;8.68;;;;;;;21.31;47.41;100243.75;4880190;28;101077;-79
2022/07/25 05:35:53;;;;;;;16.20;8.57;;;;;;;21.63;46.97;100253.69;4877437;28;101514;-79
2022/07/25 05:38:19;;;;;;;10.32;8.35;;;;;;;21.89;46.65;100255.06;4895505;28;96888;-77
2022/07/25 05:40:44;;;;;;;9.30;8.43;;;;;;;22.04;46.29;100260.13;4880812;28;96971;-80
2022/07/25 05:43:10;;;;;;;10.57;9.02;;;;;;;22.56;45.25;100259.31;4880433;28;101275;-80
2022/07/25 05:45:35;;;;;;;9.10;8.48;;;;;;;23.17;44.01;100258.53;4897102;28;97899;-80
2022/07/25 05:48:01;;;;;;;10.25;9.15;;;;;;;24.16;42.13;100254.09;4897131;28;96858;-81
2022/07/25 05:50:27;;;;;;;9.50;8.70;;;;;;;24.68;41.05;100250.28;4898751;28;97206;-81
2022/07/25 05:52:52;;;;;;;10.05;8.48;;;;;;;25.43;39.76;100246.63;4881600;28;101684;-81
2022/07/25 05:55:18;;;;;;;9.93;9.02;;;;;;;26.32;38.13;100251.22;4910397;28;99522;-79
2022/07/25 05:57:43;;;;;;;9.88;8.95;;;;;;;27.23;36.25;100253.56;4903579;28;97475;-80
2022/07/25 06:00:09;;;;;;;8.85;8.25;;;;;;;26.67;37.12;100244.09;4895881;28;97044;-80
2022/07/25 06:02:35;;;;;;;10.15;9.18;;;;;;;28.60;34.04;100245.06;4895380;28;101430;-81
2022/07/25 06:05:00;;;;;;;8.73;7.93;;;;;;;29.52;32.88;100248.16;4892760;28;101120;-81
2022/07/25 06:07:26;;;;;;;9.05;8.35;;;;;;;30.38;31.55;100245.44;4878837;28;96748;-81
2022/07/25 06:09:51;;;;;;;8.10;7.45;;;;;;;30.58;31.09;100249.31;4892752;28;97128;-81
2022/07/25 06:12:17;;;;;;;9.05;8.15;;;;;;;31.33;30.25;100248.34;4885454;28;98032;-81
2022/07/25 06:14:42;;;;;;;9.52;8.60;;;;;;;31.05;30.82;100240.03;4893956;28;101399;-81
2022/07/25 06:17:08;;;;;;;10.82;8.73;;;;;;;30.90;30.55;100242.75;4872695;28;97582;-82
2022/07/25 06:19:34;;;;;;;10.32;9.43;;;;;;;31.91;29.89;100231.28;4871088;28;97190;-81
2022/07/25 06:21:59;;;;;;;10.10;9.30;;;;;;;32.50;28.88;100235.63;4884874;28;101167;-81
2022/07/25 06:24:24;;;;;;;13.23;9.25;;;;;;;33.12;28.00;100226.63;4893930;28;100981;-82
2022/07/25 06:26:50;;;;;;;9.93;9.07;;;;;;;31.09;29.69;100218.81;4892944;28;97145;-82
2022/07/25 06:29:15;;;;;;;10.05;8.90;;;;;;;30.67;30.55;100212.97;4877427;28;97548;-82
2022/07/25 06:31:41;;;;;;;9.95;9.13;;;;;;;29.42;32.19;100211.56;4899277;28;101016;-81
2022/07/25 06:34:07;;;;;;;9.68;8.93;;;;;;;29.85;31.94;100222.81;4877759;28;101747;-83
2022/07/25 06:36:33;;;;;;;9.25;8.35;;;;;;;30.52;30.91;100217.56;4887963;28;97760;-81
2022/07/25 06:38:58;;;;;;;10.25;9.45;;;;;;;32.49;28.43;100204.03;4898829;28;96985;-82
2022/07/25 06:41:24;;;;;;;10.25;9.52;;;;;;;32.77;28.03;100204.88;4906495;28;98032;-81
2022/07/25 06:43:49;;;;;;;10.20;9.30;;;;;;;32.93;27.72;100206.44;4878781;28;101837;-82
2022/07/25 06:46:15;;;;;;;9.98;9.02;;;;;;;32.44;28.52;100194.59;4885687;28;97209;-81
2022/07/25 06:48:40;;;;;;;9.43;8.82;;;;;;;32.72;28.42;100199.19;4911849;28;97061;-81
2022/07/25 06:51:06;;;;;;;9.10;8.45;;;;;;;33.18;27.78;100201.34;4912235;28;100436;-83
2022/07/25 06:53:32;;;;;;;9.32;8.73;;;;;;;34.16;26.02;100201.00;4896497;28;101705;-81
2022/07/25 06:55:57;;;;;;;8.77;8.18;;;;;;;34.84;25.48;100193.38;4879518;28;96997;-81
2022/07/25 06:58:23;;;;;;;9.63;8.70;;;;;;;35.88;24.66;100191.44;4882915;28;97033;-81
2022/07/25 07:00:49;;;;;;;11.88;8.55;;;;;;;36.70;24.00;100183.19;4895662;28;101163;-81
2022/07/25 07:03:14;;;;;;;9.55;8.70;;;;;;;37.22;23.39;100182.81;4895230;28;102042;-81
2022/07/25 07:05:40;;;;;;;9.07;8.00;;;;;;;36.95;23.85;100177.66;4896407;28;96962;-83
2022/07/25 07:08:06;;;;;;;8.73;8.20;;;;;;;37.55;23.39;100158.56;4899049;28;96964;-83
2022/07/25 07:10:31;;;;;;;7.88;7.38;;;;;;;37.94;22.68;100163.72;4900618;28;101711;-83
2022/07/25 07:13:05;;;;;;;8.90;8.10;;;;;;;37.97;22.24;100164.06;4898971;28;97881;-82
2022/07/25 07:15:31;;;;;;;11.05;7.60;;;;;;;37.39;22.26;100157.31;4882951;28;96810;-83
2022/07/25 07:17:56;;;;;;;9.15;8.45;;;;;;;38.09;22.38;100157.78;4898469;28;97452;-82
2022/07/25 07:20:22;;;;;;;9.05;8.35;;;;;;;38.11;21.87;100151.00;4898913;28;106019;-82
2022/07/25 07:22:48;;;;;;;8.07;7.63;;;;;;;37.68;22.08;100148.50;4900702;28;101159;-83
2022/07/25 07:25:15;;;;;;;9.38;8.60;;;;;;;38.06;22.30;100150.88;4883787;28;97851;-82
2022/07/25 07:27:40;;;;;;;8.52;8.02;;;;;;;38.54;21.98;100144.31;4916148;28;97197;-82
2022/07/25 07:30:06;;;;;;;9.38;8.77;;;;;;;38.71;21.57;100133.44;4896524;28;97600;-83
2022/07/25 07:32:32;;;;;;;9.38;8.63;;;;;;;39.21;20.71;100132.00;4901639;28;102572;-83
2022/07/25 07:34:57;;;;;;;9.63;8.77;;;;;;;39.23;20.50;100136.16;4898964;28;97231;-82
2022/07/25 07:37:23;;;;;;;9.65;8.73;;;;;;;39.20;20.55;100133.06;4902264;28;97255;-83
2022/07/25 07:39:49;;;;;;;9.23;8.70;;;;;;;39.47;20.63;100123.16;4904351;28;101485;-82
2022/07/25 07:42:14;;;;;;;9.50;8.73;;;;;;;39.20;20.96;100106.47;4907864;28;97371;-83
2022/07/25 07:44:39;;;;;;;9.65;8.95;;;;;;;38.57;21.37;100121.06;4884909;28;96733;-83
2022/07/25 07:47:05;;;;;;;9.70;9.00;;;;;;;38.58;21.57;100118.09;4886934;28;96900;-83
2022/07/25 07:49:30;;;;;;;9.85;9.00;;;;;;;38.33;21.63;100109.28;4883697;28;101463;-83
2022/07/25 07:51:56;;;;;;;9.10;8.60;;;;;;;38.92;20.70;100116.38;4900126;28;100900;-84
2022/07/25 07:57:05;;;;;;;9.02;8.30;;;;;;;38.11;21.71;100115.38;4916716;28;97103;-86
2022/07/25 07:59:31;;;;;;;8.82;8.30;;;;;;;38.11;21.22;100112.63;4882394;28;101408;-83
2022/07/25 08:01:56;;;;;;;9.07;8.23;;;;;;;37.97;21.59;100109.28;4875396;28;101365;-81
2022/07/25 08:04:22;;;;;;;8.77;8.27;;;;;;;37.98;21.04;100100.00;4913782;28;97097;-84
2022/07/25 08:06:47;;;;;;;8.75;8.10;;;;;;;37.96;21.02;100098.56;4897620;28;96906;-83
2022/07/25 08:09:12;;;;;;;8.48;8.07;;;;;;;38.09;21.03;100102.97;4912557;28;99223;-84
2022/07/25 08:11:38;;;;;;;8.52;7.78;;;;;;;37.53;20.64;100100.50;4876160;28;101293;-84
2022/07/25 08:14:05;;;;;;;9.32;8.65;;;;;;;37.42;21.33;100087.59;4898544;28;97295;-83
2022/07/25 08:16:32;;;;;;;8.45;7.85;;;;;;;38.17;20.45;100089.75;4897937;28;97245;-82
2022/07/25 08:18:57;;;;;;;8.18;7.68;;;;;;;38.05;20.72;100084.28;4913520;28;101440;-83
2022/07/25 08:21:23;;;;;;;8.07;7.57;;;;;;;38.73;20.03;100096.47;4872400;28;101306;-84
2022/07/25 08:23:48;;;;;;;8.55;8.02;;;;;;;38.07;20.08;100097.72;4897568;28;97390;-83
2022/07/25 08:26:14;;;;;;;8.77;8.18;;;;;;;38.67;19.74;100097.44;4885008;28;97448;-85
2022/07/25 08:28:40;;;;;;;7.95;7.45;;;;;;;37.85;19.95;100092.00;4895758;28;101847;-82
2022/07/25 08:31:06;;;;;;;8.38;7.82;;;;;;;37.99;20.24;100093.47;4897412;28;101466;-84
2022/07/25 08:33:32;;;;;;;8.60;7.93;;;;;;;37.22;20.50;100079.69;4876728;28;96948;-89
2022/07/25 08:35:58;;;;;;;8.18;7.60;;;;;;;37.61;20.69;100085.63;4910535;28;96941;-87
2022/07/25 08:38:26;;;;;;;8.25;7.55;;;;;;;37.39;19.70;100083.44;4888028;28;101391;-89
2022/07/25 08:40:52;;;;;;;8.65;7.95;;;;;;;36.42;20.89;100083.41;4888133;28;101494;-89
2022/07/25 08:43:18;;;;;;;8.10;7.53;;;;;;;37.71;20.13;100074.94;4898939;28;97349;-89
2022/07/25 08:45:49;;;;;;;8.50;7.90;;;;;;;37.22;20.46;100090.63;4898100;28;96895;-89
2022/07/25 08:48:19;;;;;;;9.13;8.20;;;;;;;37.66;20.00;100072.06;4896548;28;100289;-89
2022/07/25 08:50:45;;;;;;;8.73;8.00;;;;;;;38.00;19.96;100080.59;4913300;28;97138;-88
2022/07/25 08:53:12;;;;;;;9.02;8.23;;;;;;;37.70;20.40;100072.44;4880393;28;97312;-84
2022/07/25 08:55:38;;;;;;;8.23;7.82;;;;;;;37.44;20.26;100077.25;4903833;28;97213;-83
2022/07/25 08:58:04;;;;;;;8.40;7.90;;;;;;;37.20;20.66;100072.78;4897418;28;97521;-83
2022/07/25 09:00:29;;;;;;;8.25;7.65;;;;;;;37.94;20.17;100065.13;4894876;28;101253;-82
2022/07/25 09:03:00;;;;;;;13.23;7.85;;;;;;;37.16;20.10;100062.31;4889199;28;96841;-82
2022/07/25 09:05:27;;;;;;;9.73;8.85;;;;;;;37.24;20.65;100068.53;4880353;28;96971;-79
2022/07/25 09:07:55;;;;;;;8.38;7.78;;;;;;;37.41;20.77;100060.44;4897071;28;101258;-82
2022/07/25 09:10:25;;;;;;;8.40;7.60;;;;;;;37.23;20.39;100058.63;4896828;28;100995;-81
2022/07/25 09:12:52;;;;;;;8.18;7.68;;;;;;;37.22;20.42;100062.44;4896449;28;97606;-82
2022/07/25 09:15:29;;;;;;;7.20;6.78;;;;;;;37.15;20.55;100057.91;4908146;28;96961;-81
2022/07/25 09:17:57;;;;;;;7.75;7.03;;;;;;;36.62;21.16;100065.94;4894755;28;101093;-81
2022/07/25 09:20:22;;;;;;;6.88;6.47;;;;;;;36.11;22.16;100048.03;4879913;28;101328;-81
2022/07/25 09:22:48;;;;;;;7.68;7.25;;;;;;;35.93;23.14;100048.81;4909923;28;97035;-82
2022/07/25 09:25:28;;;;;;;7.90;7.40;;;;;;;35.52;22.90;100052.88;4905894;28;97729;-82
2022/07/25 09:27:54;;;;;;;8.13;7.63;;;;;;;35.05;22.94;100045.03;4891806;28;101636;-82
2022/07/25 09:30:20;;;;;;;7.97;7.47;;;;;;;35.21;22.98;100046.41;4910047;28;101607;-82
2022/07/25 09:32:46;;;;;;;7.30;6.70;;;;;;;34.16;23.97;100034.88;4909144;28;97314;-81
2022/07/25 09:35:11;;;;;;;6.93;6.45;;;;;;;34.22;25.25;100053.91;4910217;28;97252;-81
2022/07/25 09:37:37;;;;;;;7.95;7.28;;;;;;;33.72;24.76;100047.28;4896233;28;101742;-81
2022/07/25 09:40:11;;;;;;;7.00;6.50;;;;;;;33.28;25.05;100041.34;4893925;28;97479;-82
2022/07/25 09:42:37;;;;;;;7.32;6.65;;;;;;;33.18;25.91;100040.06;4887155;28;97305;-82
2022/07/25 09:45:10;;;;;;;7.35;6.78;;;;;;;33.40;26.27;100027.97;4894126;28;97053;-82
2022/07/25 09:47:57;;;;;;;7.57;6.80;;;;;;;33.62;27.12;100023.19;4880097;28;102146;-81
2022/07/25 09:50:24;;;;;;;7.18;6.68;;;;;;;33.77;25.73;100012.94;4902135;28;97900;-82
2022/07/25 09:52:52;;;;;;;7.38;6.68;;;;;;;33.70;25.60;100028.41;4889353;28;96906;-80
2022/07/25 09:55:19;;;;;;;7.53;7.00;;;;;;;33.78;25.76;100016.50;4897362;28;97264;-81
2022/07/25 09:57:46;;;;;;;7.50;7.00;;;;;;;33.79;26.86;99999.09;4909285;28;98218;-81
2022/07/25 10:00:13;;;;;;;7.32;6.90;;;;;;;33.29;25.68;100018.53;4895740;28;101394;-82
2022/07/25 10:02:53;;;;;;;7.40;6.80;;;;;;;32.80;26.02;100019.66;4887933;28;97585;-83
2022/07/25 10:05:22;;;;;;;6.88;6.38;;;;;;;32.85;26.27;100014.47;4910063;28;97337;-82
2022/07/25 10:07:50;;;;;;;6.65;6.25;;;;;;;32.87;26.77;99998.81;4910368;28;98302;-83
2022/07/25 10:10:30;;;;;;;7.47;6.85;;;;;;;32.87;27.11;100006.09;4893622;28;101088;-82
2022/07/25 10:13:00;;;;;;;7.38;6.88;;;;;;;32.93;25.92;99994.44;4891756;28;98253;-84
2022/07/25 10:15:27;;;;;;;7.22;6.65;;;;;;;32.46;25.67;100009.72;4919445;28;97874;-81
2022/07/25 10:18:03;;;;;;;7.40;6.90;;;;;;;32.15;26.04;99999.31;4894364;28;98050;-81
2022/07/25 10:20:29;;;;;;;6.80;6.40;;;;;;;32.11;26.06;99995.31;4877920;28;101441;-82
2022/07/25 10:22:54;;;;;;;7.20;6.70;;;;;;;32.22;26.72;99992.03;4878232;28;97376;-81
2022/07/25 10:25:20;;;;;;;7.13;6.60;;;;;;;32.21;26.83;99974.09;4893502;28;97281;-80
2022/07/25 10:27:49;;;;;;;7.40;6.78;;;;;;;32.19;26.78;99979.69;4877205;28;101696;-81
2022/07/25 10:30:33;;;;;;;6.70;6.30;;;;;;;32.15;25.85;99977.59;4878660;28;101059;-82
2022/07/25 10:33:17;;;;;;;9.18;6.32;;;;;;;31.98;25.67;99972.50;4911369;28;97451;-81
2022/07/25 10:35:44;;;;;;;6.85;6.43;;;;;;;31.87;26.09;99973.00;4911053;28;98319;-81
2022/07/25 10:38:09;;;;;;;6.95;6.53;;;;;;;31.79;25.64;99970.44;4905964;28;101314;-81
2022/07/25 10:40:55;;;;;;;6.85;6.43;;;;;;;31.54;26.53;99959.25;4896722;28;97393;-81
2022/07/25 10:43:21;;;;;;;6.55;6.15;;;;;;;31.24;27.15;99966.66;4911107;28;96739;-81
2022/07/25 10:45:48;;;;;;;6.53;6.13;;;;;;;31.17;27.06;99961.19;4912523;28;97307;-81
2022/07/25 10:48:30;;;;;;;6.53;6.15;;;;;;;31.11;26.80;99957.38;4892456;28;101411;-80
2022/07/25 10:51:03;;;;;;;6.63;6.22;;;;;;;31.18;26.42;99951.19;4898872;28;101103;-80
2022/07/25 10:53:28;;;;;;;7.00;6.60;;;;;;;31.19;26.60;99953.72;4913826;28;97992;-81
2022/07/25 10:56:02;;;;;;;6.70;6.30;;;;;;;31.19;26.55;99956.41;4906118;28;97415;-80
2022/07/25 10:58:40;;;;;;;6.43;6.03;;;;;;;31.12;26.68;99945.50;4895844;28;101119;-80
2022/07/25 11:01:06;;;;;;;6.45;5.90;;;;;;;31.09;26.47;99937.75;4904920;28;97786;-80
2022/07/25 11:03:32;;;;;;;6.82;6.30;;;;;;;31.12;26.84;99928.41;4893396;28;97400;-80
2022/07/25 11:05:57;;;;;;;6.40;5.90;;;;;;;31.09;26.99;99931.50;4905927;28;98607;-79
2022/07/25 11:08:33;;;;;;;6.32;6.00;;;;;;;31.15;27.14;99929.88;4891096;28;97547;-80
2022/07/25 11:10:58;;;;;;;6.63;6.13;;;;;;;31.10;26.25;99911.53;4905517;28;98107;-80
2022/07/25 11:13:24;;;;;;;6.43;5.80;;;;;;;31.18;26.11;99922.19;4903526;28;98021;-80
2022/07/25 11:15:50;;;;;;;7.10;6.60;;;;;;;31.13;26.83;99916.56;4904359;28;97102;-79
2022/07/25 11:18:17;;;;;;;6.05;5.65;;;;;;;31.16;26.68;99913.44;4900153;28;97918;-78
2022/07/25 11:20:43;;;;;;;6.60;5.65;;;;;;;31.10;26.30;99923.19;4876315;28;100984;-79